Cartama, Spain
Current Conditions -  °F | °C
As of 4:30 PM on Friday 28 Nov 2014 (Local Time) from LEMG Reporting Station
Scattered Clouds Scattered Clouds  
Wind Chill: 16°   Ceiling: Unl
Heat Index: 16°   Visibility: 6mi
Dew Point: 11°   Wind: 9mph
Humidity: 72%   Direction: 190°S
Pressure: 29.15"   Gusts: NA
Location:  36.71°N, 4.63°W
Report Text: LEMG 281530Z 19008KT 160V250 9999 FEW015 SCT050TCU 16/11 Q0987 NOSIG
Loading
Personal Weather Stations






























Interactive Weather Map New forecast layout! Learn more

10-Day Weather Forecast

Advertisements
Track Severe Weather on mobile